Time;durP1;ratioP1;P1;durP2;ratioP2;P2;SDS_P1;SDS_P2;PMS_P1;PMS_P2;Temp;Humidity;BMP_temperature;BMP_pressure;BME280_temperature;BME280_humidity;BME280_pressure;Samples;Min_cycle;Max_cycle;Signal;HPM_P1;HPM_P2
2022/05/10 09:02:48;;;;;;;11.98;3.63;;;;;;;;;;5032882;28;91987;-70
2022/05/10 09:05:14;;;;;;;6.05;4.45;;;;;;;;;;4997887;28;92823;-71
2022/05/10 09:07:51;;;;;;;11.93;3.83;;;;;;;;;;5010935;28;92042;-71
2022/05/10 09:10:20;;;;;;;5.15;3.55;;;;;;;;;;4998207;28;92020;-71
2022/05/10 09:13:01;;;;;;;4.25;3.85;;;;;;;;;;5010813;28;92105;-71
2022/05/10 09:15:33;;;;;;;7.85;4.07;;;;;;;;;;4998366;28;92192;-71
2022/05/10 09:18:09;;;;;;;4.53;3.78;;;;;;;;;;5011094;28;94494;-71
2022/05/10 09:20:38;;;;;;;6.32;4.00;;;;;;;;;;5011127;28;91937;-72
2022/05/10 09:23:10;;;;;;;8.15;3.60;;;;;;;;;;5000810;28;92441;-71
2022/05/10 09:25:38;;;;;;;10.60;3.83;;;;;;;;;;4997316;28;92838;-70
2022/05/10 09:28:23;;;;;;;10.73;3.50;;;;;;;;;;4993318;28;92154;-70
2022/05/10 09:36:24;;;;;;;4.82;3.85;;;;;;;;;;5001636;28;92070;-70
2022/05/10 09:38:54;;;;;;;3.90;3.60;;;;;;;;;;4990067;28;92132;-70
2022/05/10 09:41:31;;;;;;;5.00;3.67;;;;;;;;;;4989975;28;93028;-70
2022/05/10 09:44:12;;;;;;;7.20;4.05;;;;;;;;;;4990009;28;92130;-71
2022/05/10 09:46:39;;;;;;;5.50;3.90;;;;;;;;;;4993333;28;92066;-70
2022/05/10 09:49:05;;;;;;;3.97;3.30;;;;;;;;;;4993618;28;92244;-70
2022/05/10 09:51:41;;;;;;;6.88;3.63;;;;;;;;;;4990290;28;92220;-70
2022/05/10 09:54:13;;;;;;;5.72;3.42;;;;;;;;;;4989543;28;91729;-70
2022/05/10 09:56:43;;;;;;;4.88;3.65;;;;;;;;;;4990018;28;92342;-70
2022/05/10 09:59:12;;;;;;;4.10;3.60;;;;;;;;;;4989690;28;92036;-71
2022/05/10 10:01:44;;;;;;;4.47;3.80;;;;;;;;;;4989930;28;91958;-73
2022/05/10 10:04:27;;;;;;;6.85;3.65;;;;;;;;;;5004355;28;92054;-71
2022/05/10 10:07:18;;;;;;;3.85;3.47;;;;;;;;;;5001559;28;92477;-71
2022/05/10 10:09:46;;;;;;;12.27;3.72;;;;;;;;;;4998224;28;92913;-71
2022/05/10 10:12:27;;;;;;;3.80;3.10;;;;;;;;;;4992916;28;91706;-71
2022/05/10 10:14:54;;;;;;;3.58;3.35;;;;;;;;;;4978501;28;91759;-71
2022/05/10 10:17:22;;;;;;;4.47;3.63;;;;;;;;;;4991057;28;92353;-70
2022/05/10 10:19:50;;;;;;;7.45;3.75;;;;;;;;;;4978514;28;93397;-73
2022/05/10 10:22:21;;;;;;;6.47;3.65;;;;;;;;;;4976243;28;92970;-73
2022/05/10 10:25:01;;;;;;;5.22;3.95;;;;;;;;;;4983477;28;91931;-74
2022/05/10 10:27:37;;;;;;;4.05;3.38;;;;;;;;;;4978250;28;91898;-71
2022/05/10 10:30:13;;;;;;;5.40;3.80;;;;;;;;;;4984648;28;92031;-70
2022/05/10 10:32:44;;;;;;;3.95;3.03;;;;;;;;;;5000039;28;92599;-71
2022/05/10 10:35:15;;;;;;;16.20;4.00;;;;;;;;;;4998192;28;92042;-74
2022/05/10 10:37:51;;;;;;;6.80;3.92;;;;;;;;;;4997894;28;92102;-70
2022/05/10 10:40:26;;;;;;;5.13;4.00;;;;;;;;;;4985127;28;92263;-70
2022/05/10 10:42:56;;;;;;;10.32;4.97;;;;;;;;;;4983139;28;92116;-70
2022/05/10 10:45:47;;;;;;;9.52;4.35;;;;;;;;;;4990056;28;92180;-71
2022/05/10 10:48:18;;;;;;;6.68;4.40;;;;;;;;;;4976344;28;92102;-71
2022/05/10 10:50:44;;;;;;;14.20;4.13;;;;;;;;;;4987757;28;92136;-71
2022/05/10 10:53:12;;;;;;;9.60;4.32;;;;;;;;;;4990293;28;92208;-70
2022/05/10 10:55:44;;;;;;;12.20;3.90;;;;;;;;;;4999625;28;93144;-71
2022/05/10 10:58:13;;;;;;;10.93;4.22;;;;;;;;;;4997528;28;92842;-70
2022/05/10 11:00:51;;;;;;;7.93;4.13;;;;;;;;;;4996977;28;92089;-70
2022/05/10 11:03:31;;;;;;;6.18;3.95;;;;;;;;;;4983375;28;93590;-71
2022/05/10 11:06:06;;;;;;;10.10;3.47;;;;;;;;;;4977091;28;91990;-70
2022/05/10 11:08:32;;;;;;;8.20;3.88;;;;;;;;;;4976649;28;92110;-71
2022/05/10 11:11:11;;;;;;;15.10;4.90;;;;;;;;;;4976451;28;92098;-71
2022/05/10 11:14:04;;;;;;;5.28;3.65;;;;;;;;;;4977191;28;92029;-70
2022/05/10 11:16:39;;;;;;;15.90;3.83;;;;;;;;;;4995378;28;91738;-71
2022/05/10 11:19:12;;;;;;;9.93;3.80;;;;;;;;;;4989004;28;91901;-70
2022/05/10 11:21:39;;;;;;;13.88;3.75;;;;;;;;;;4991336;28;91918;-71
2022/05/10 11:24:24;;;;;;;5.72;3.38;;;;;;;;;;4976084;28;92062;-70
2022/05/10 11:26:50;;;;;;;4.97;3.22;;;;;;;;;;4996683;28;91878;-73
2022/05/10 11:29:25;;;;;;;10.55;3.60;;;;;;;;;;4983008;28;92307;-70
2022/05/10 11:32:01;;;;;;;10.02;3.20;;;;;;;;;;4997163;28;93248;-70
2022/05/10 11:34:46;;;;;;;12.20;3.40;;;;;;;;;;4996595;28;92069;-70
2022/05/10 11:37:24;;;;;;;8.63;3.53;;;;;;;;;;4997214;28;92179;-70
2022/05/10 11:40:03;;;;;;;14.45;3.75;;;;;;;;;;4999631;28;94458;-70
2022/05/10 11:42:48;;;;;;;12.38;3.40;;;;;;;;;;4980965;28;92299;-70
2022/05/10 11:45:34;;;;;;;12.75;3.92;;;;;;;;;;4976379;28;91922;-70
2022/05/10 11:48:04;;;;;;;10.77;4.05;;;;;;;;;;4976388;28;92244;-71
2022/05/10 11:53:51;;;;;;;5.47;3.72;;;;;;;;;;4976146;28;93968;-70
2022/05/10 11:56:17;;;;;;;12.15;4.15;;;;;;;;;;4976669;28;92460;-71
2022/05/10 11:58:44;;;;;;;11.35;3.72;;;;;;;;;;4990127;28;92160;-70
2022/05/10 12:01:12;;;;;;;9.60;3.75;;;;;;;;;;4975030;28;92116;-70
2022/05/10 12:03:39;;;;;;;10.75;4.22;;;;;;;;;;4986297;28;92218;-70
2022/05/10 12:06:23;;;;;;;12.98;4.20;;;;;;;;;;4996471;28;92090;-70
2022/05/10 12:09:00;;;;;;;9.05;3.53;;;;;;;;;;4983984;28;92174;-70
2022/05/10 12:11:33;;;;;;;19.30;3.83;;;;;;;;;;4976424;28;92250;-70
2022/05/10 12:22:20;;;;;;;7.80;3.60;;;;;;;;;;4995015;28;93010;-72
2022/05/10 12:24:47;;;;;;;14.75;4.18;;;;;;;;;;4986528;28;91942;-72
2022/05/10 12:27:15;;;;;;;19.88;4.60;;;;;;;;;;4979086;28;93405;-72
2022/05/10 12:29:41;;;;;;;8.07;3.97;;;;;;;;;;4981136;28;92037;-71
2022/05/10 12:32:27;;;;;;;15.60;4.28;;;;;;;;;;4985404;28;92055;-71
2022/05/10 12:34:58;;;;;;;10.65;4.57;;;;;;;;;;4988850;28;91952;-71
2022/05/10 12:37:28;;;;;;;11.52;4.10;;;;;;;;;;4990493;28;92321;-72
2022/05/10 12:39:57;;;;;;;18.23;4.57;;;;;;;;;;4977180;28;93643;-71
2022/05/10 12:42:24;;;;;;;6.60;3.92;;;;;;;;;;4977334;28;92058;-72
2022/05/10 12:45:02;;;;;;;13.63;3.33;;;;;;;;;;4981821;28;91978;-73
2022/05/10 12:47:47;;;;;;;13.82;5.03;;;;;;;;;;4980800;28;92607;-72
2022/05/10 12:50:24;;;;;;;7.00;3.67;;;;;;;;;;4986909;28;92267;-72
2022/05/10 12:52:51;;;;;;;13.70;4.28;;;;;;;;;;4994472;28;93274;-71
2022/05/10 12:55:27;;;;;;;18.17;4.68;;;;;;;;;;4986122;28;91957;-71
2022/05/10 12:57:56;;;;;;;9.55;4.50;;;;;;;;;;4990109;28;91981;-71
2022/05/10 13:00:28;;;;;;;12.40;4.72;;;;;;;;;;4979078;28;92113;-72
2022/05/10 13:02:58;;;;;;;20.95;5.32;;;;;;;;;;4974460;28;92973;-72
2022/05/10 13:05:37;;;;;;;17.30;5.67;;;;;;;;;;4973942;28;92223;-70
2022/05/10 13:08:06;;;;;;;17.88;5.97;;;;;;;;;;4974844;28;92812;-70
2022/05/10 13:10:34;;;;;;;25.13;5.63;;;;;;;;;;4994907;28;92292;-71
2022/05/10 13:13:03;;;;;;;16.65;5.18;;;;;;;;;;4997583;28;92101;-71
2022/05/10 13:15:30;;;;;;;26.92;4.70;;;;;;;;;;4975094;28;92130;-72
2022/05/10 13:17:58;;;;;;;14.68;4.57;;;;;;;;;;4985189;28;92320;-70
2022/05/10 13:20:27;;;;;;;16.95;5.32;;;;;;;;;;4974305;28;91836;-71
2022/05/10 13:22:55;;;;;;;16.27;5.75;;;;;;;;;;4987836;28;93120;-70
2022/05/10 13:25:31;;;;;;;22.10;5.28;;;;;;;;;;4985523;28;92008;-70
2022/05/10 13:28:07;;;;;;;15.00;5.03;;;;;;;;;;4989042;28;92092;-70
2022/05/10 13:30:35;;;;;;;10.82;5.13;;;;;;;;;;4984697;28;92889;-70
2022/05/10 13:33:01;;;;;;;22.08;5.30;;;;;;;;;;4979625;28;92143;-70
2022/05/10 13:35:32;;;;;;;20.05;6.32;;;;;;;;;;4983131;28;91716;-71
2022/05/10 13:38:06;;;;;;;19.35;5.70;;;;;;;;;;4993745;28;92558;-71
2022/05/10 13:40:56;;;;;;;26.42;5.82;;;;;;;;;;4994002;28;91722;-72
2022/05/10 13:43:32;;;;;;;10.43;5.45;;;;;;;;;;4989515;28;92932;-71
2022/05/10 13:46:03;;;;;;;8.20;4.38;;;;;;;;;;4982858;28;92024;-72
2022/05/10 13:48:31;;;;;;;16.30;4.43;;;;;;;;;;4980585;28;92673;-71
2022/05/10 13:51:09;;;;;;;11.20;4.85;;;;;;;;;;4986330;28;92293;-72
2022/05/10 13:53:36;;;;;;;10.15;4.65;;;;;;;;;;4990900;28;92055;-72
2022/05/10 13:56:04;;;;;;;22.65;4.45;;;;;;;;;;4999882;28;92084;-72
2022/05/10 13:58:32;;;;;;;13.95;4.32;;;;;;;;;;4996920;28;92250;-72
2022/05/10 14:01:00;;;;;;;10.98;4.22;;;;;;;;;;4978534;28;92240;-72
2022/05/10 14:03:27;;;;;;;10.15;4.45;;;;;;;;;;4976667;28;92220;-72
2022/05/10 14:06:01;;;;;;;19.05;3.88;;;;;;;;;;4976657;28;92447;-72
2022/05/10 14:08:28;;;;;;;15.15;3.70;;;;;;;;;;4977155;28;92087;-72
2022/05/10 14:10:59;;;;;;;5.93;3.50;;;;;;;;;;4976417;28;93413;-71
2022/05/10 14:13:26;;;;;;;12.70;3.55;;;;;;;;;;4978901;28;93012;-72
2022/05/10 14:15:57;;;;;;;11.90;4.40;;;;;;;;;;4990968;28;91608;-73
2022/05/10 14:18:23;;;;;;;12.60;3.33;;;;;;;;;;4987868;28;92440;-72
2022/05/10 14:20:51;;;;;;;7.07;3.40;;;;;;;;;;4988573;28;92404;-72
2022/05/10 14:23:20;;;;;;;6.15;3.45;;;;;;;;;;4996421;28;91968;-72
2022/05/10 14:25:52;;;;;;;11.40;3.38;;;;;;;;;;4993174;28;92171;-71
2022/05/10 14:28:38;;;;;;;8.05;2.88;;;;;;;;;;4976721;28;92353;-72
2022/05/10 14:31:12;;;;;;;6.70;3.55;;;;;;;;;;4991424;28;92773;-72
2022/05/10 14:33:40;;;;;;;12.25;3.58;;;;;;;;;;4997109;28;92667;-74
2022/05/10 14:36:08;;;;;;;8.68;2.60;;;;;;;;;;4996538;28;92120;-74
2022/05/10 14:38:39;;;;;;;3.95;2.10;;;;;;;;;;4996395;28;92939;-73
2022/05/10 14:41:06;;;;;;;5.90;2.20;;;;;;;;;;4999408;28;91881;-73
2022/05/10 14:43:37;;;;;;;4.68;1.95;;;;;;;;;;4982493;28;93347;-73
2022/05/10 14:46:22;;;;;;;11.07;1.67;;;;;;;;;;4983025;28;92250;-73
2022/05/10 14:48:57;;;;;;;10.60;2.25;;;;;;;;;;4976620;28;93397;-74
2022/05/10 14:51:34;;;;;;;4.68;1.85;;;;;;;;;;4976684;28;92023;-73
2022/05/10 14:54:01;;;;;;;14.25;2.30;;;;;;;;;;4976244;28;92398;-73
2022/05/10 14:56:28;;;;;;;14.20;2.33;;;;;;;;;;4990035;28;92409;-73
2022/05/10 14:59:07;;;;;;;4.20;1.92;;;;;;;;;;4983052;28;92056;-73
2022/05/10 15:01:35;;;;;;;7.25;2.60;;;;;;;;;;4995581;28;92042;-73
2022/05/10 15:04:11;;;;;;;23.95;4.97;;;;;;;;;;4991039;28;92088;-74
2022/05/10 15:06:39;;;;;;;37.63;17.58;;;;;;;;;;4990496;28;92119;-73
2022/05/10 15:09:06;;;;;;;18.73;8.00;;;;;;;;;;4987439;28;92480;-73
2022/05/10 15:11:32;;;;;;;11.68;4.82;;;;;;;;;;4987812;28;91759;-73
2022/05/10 15:13:59;;;;;;;5.57;2.67;;;;;;;;;;4974919;28;92023;-71
2022/05/10 15:16:26;;;;;;;12.70;3.53;;;;;;;;;;4974999;28;92457;-71
2022/05/10 15:18:58;;;;;;;2.90;2.40;;;;;;;;;;4977131;28;92986;-71
2022/05/10 15:21:27;;;;;;;7.22;2.15;;;;;;;;;;4976182;28;92280;-70
2022/05/10 15:23:54;;;;;;;11.13;2.35;;;;;;;;;;4976075;28;91712;-71
2022/05/10 15:26:22;;;;;;;11.82;2.20;;;;;;;;;;4978946;28;93079;-70
2022/05/10 15:28:51;;;;;;;10.70;2.03;;;;;;;;;;4979759;28;92532;-71
2022/05/10 15:31:19;;;;;;;14.60;1.80;;;;;;;;;;4978769;28;92146;-70
2022/05/10 15:33:45;;;;;;;20.58;2.30;;;;;;;;;;4990175;28;91932;-70
2022/05/10 15:36:13;;;;;;;5.82;1.23;;;;;;;;;;4975331;28;92243;-71
2022/05/10 15:38:40;;;;;;;6.53;1.80;;;;;;;;;;4975999;28;92600;-70
2022/05/10 15:41:07;;;;;;;2.00;1.23;;;;;;;;;;4975930;28;92368;-70
2022/05/10 15:43:33;;;;;;;1.38;1.13;;;;;;;;;;4975602;28;92684;-71
2022/05/10 15:46:01;;;;;;;4.00;1.23;;;;;;;;;;4978818;28;92056;-71
2022/05/10 15:48:29;;;;;;;7.40;1.23;;;;;;;;;;4975387;28;92309;-71
2022/05/10 15:50:56;;;;;;;4.65;1.42;;;;;;;;;;4975554;28;92730;-72
2022/05/10 15:53:22;;;;;;;9.98;1.65;;;;;;;;;;4981051;28;91974;-74
2022/05/10 15:55:50;;;;;;;3.65;1.63;;;;;;;;;;4985061;28;92383;-74
2022/05/10 15:58:19;;;;;;;4.45;2.03;;;;;;;;;;4989379;28;92692;-74
2022/05/10 16:00:46;;;;;;;5.00;2.60;;;;;;;;;;4985719;28;92310;-74
2022/05/10 16:03:13;;;;;;;2.92;2.00;;;;;;;;;;4981327;28;92360;-71
2022/05/10 16:05:40;;;;;;;2.70;1.60;;;;;;;;;;4988182;28;93019;-71
2022/05/10 16:08:10;;;;;;;5.93;1.90;;;;;;;;;;4992932;28;92018;-71
2022/05/10 16:10:39;;;;;;;1.70;1.60;;;;;;;;;;4987275;28;91932;-71
2022/05/10 16:13:05;;;;;;;5.70;2.38;;;;;;;;;;4975476;28;92204;-71
2022/05/10 16:15:36;;;;;;;7.70;2.22;;;;;;;;;;4975801;28;91931;-70
2022/05/10 16:18:03;;;;;;;8.65;1.80;;;;;;;;;;4975236;28;94493;-71
2022/05/10 16:20:31;;;;;;;16.30;1.98;;;;;;;;;;4975267;28;92312;-71
2022/05/10 16:22:58;;;;;;;3.58;1.90;;;;;;;;;;4974682;28;92163;-71
2022/05/10 16:25:25;;;;;;;15.65;2.30;;;;;;;;;;4974855;28;92173;-71
2022/05/10 16:30:38;;;;;;;24.30;2.22;;;;;;;;;;4980845;28;93143;-71
2022/05/10 16:33:06;;;;;;;5.38;2.00;;;;;;;;;;4975064;28;91619;-71
2022/05/10 16:35:37;;;;;;;2.45;1.70;;;;;;;;;;4975172;28;91949;-71
2022/05/10 16:38:04;;;;;;;5.30;1.85;;;;;;;;;;4975069;28;93045;-71
2022/05/10 16:40:30;;;;;;;13.85;2.10;;;;;;;;;;4974939;28;92063;-71
2022/05/10 16:42:57;;;;;;;7.50;2.05;;;;;;;;;;4975091;28;92139;-71
2022/05/10 16:45:24;;;;;;;8.18;2.13;;;;;;;;;;4976802;28;92894;-71
2022/05/10 16:47:50;;;;;;;15.98;2.63;;;;;;;;;;4975558;28;91682;-73
2022/05/10 16:50:17;;;;;;;18.33;2.42;;;;;;;;;;4979216;28;92043;-73
2022/05/10 16:52:46;;;;;;;15.70;2.72;;;;;;;;;;4988054;28;92876;-72
2022/05/10 16:55:18;;;;;;;6.88;2.35;;;;;;;;;;4990148;28;92523;-73
2022/05/10 16:57:45;;;;;;;5.28;1.95;;;;;;;;;;4975816;28;93988;-73
2022/05/10 17:00:17;;;;;;;19.55;2.92;;;;;;;;;;4988843;28;91974;-73
2022/05/10 17:02:45;;;;;;;10.52;2.13;;;;;;;;;;4983199;28;92344;-72
2022/05/10 17:05:13;;;;;;;11.38;2.92;;;;;;;;;;4980730;28;94737;-73
2022/05/10 17:07:40;;;;;;;6.78;2.40;;;;;;;;;;4981467;28;92072;-73
2022/05/10 17:10:09;;;;;;;4.47;1.90;;;;;;;;;;4985847;28;92552;-73
2022/05/10 17:12:35;;;;;;;3.28;2.08;;;;;;;;;;4974632;28;93084;-73
2022/05/10 17:15:02;;;;;;;4.03;1.88;;;;;;;;;;4978537;28;92085;-73
2022/05/10 17:17:30;;;;;;;6.88;1.88;;;;;;;;;;4988970;28;92796;-72
2022/05/10 17:19:56;;;;;;;5.15;2.15;;;;;;;;;;4975578;28;91950;-73
2022/05/10 17:22:23;;;;;;;7.93;1.95;;;;;;;;;;4988661;28;92140;-74
2022/05/10 17:24:49;;;;;;;6.30;2.05;;;;;;;;;;4988485;28;92036;-71
2022/05/10 17:27:29;;;;;;;5.47;1.70;;;;;;;;;;4998413;28;91759;-71
2022/05/10 17:29:57;;;;;;;3.75;1.90;;;;;;;;;;4984830;28;91771;-70
2022/05/10 17:32:24;;;;;;;5.43;1.63;;;;;;;;;;4998792;28;92861;-69
2022/05/10 17:34:51;;;;;;;6.25;1.63;;;;;;;;;;4980209;28;92385;-70
2022/05/10 17:37:18;;;;;;;6.30;1.88;;;;;;;;;;4991951;28;92204;-70
2022/05/10 17:39:44;;;;;;;7.93;1.77;;;;;;;;;;4977240;28;92243;-70
2022/05/10 17:42:11;;;;;;;6.35;1.52;;;;;;;;;;4977594;28;92327;-70
2022/05/10 17:44:58;;;;;;;7.05;2.03;;;;;;;;;;4978854;28;93006;-70
2022/05/10 17:47:25;;;;;;;7.20;2.10;;;;;;;;;;4980276;28;92017;-70
2022/05/10 17:49:51;;;;;;;8.75;1.50;;;;;;;;;;4978699;28;92092;-70
2022/05/10 17:52:18;;;;;;;7.97;1.65;;;;;;;;;;4990055;28;91951;-70
2022/05/10 17:54:44;;;;;;;12.88;2.15;;;;;;;;;;4998314;28;91756;-70
2022/05/10 17:57:11;;;;;;;6.80;1.92;;;;;;;;;;5001476;28;92062;-70
2022/05/10 17:59:37;;;;;;;12.82;2.30;;;;;;;;;;4984157;28;92014;-70
2022/05/10 18:02:04;;;;;;;9.25;1.85;;;;;;;;;;4989604;28;92090;-70
2022/05/10 18:04:33;;;;;;;6.05;2.08;;;;;;;;;;4992019;28;92861;-70
2022/05/10 18:06:59;;;;;;;7.68;2.10;;;;;;;;;;4991417;28;92050;-70
2022/05/10 18:09:26;;;;;;;5.85;1.45;;;;;;;;;;4987865;28;92184;-70
